createdAt,value
2022-09-07T00:00:45.358Z,21.90
2022-09-07T00:03:13.197Z,22.10
2022-09-07T00:05:43.221Z,22.00
2022-09-07T00:08:11.748Z,22.00
2022-09-07T00:10:39.575Z,22.10
2022-09-07T00:13:10.387Z,22.20
2022-09-07T00:15:40.492Z,22.10
2022-09-07T00:18:08.364Z,22.20
2022-09-07T00:20:36.123Z,22.30
2022-09-07T00:23:04.011Z,22.30
2022-09-07T00:25:32.223Z,22.20
2022-09-07T00:28:00.129Z,22.20
2022-09-07T00:30:29.186Z,22.20
2022-09-07T00:32:56.923Z,22.00
2022-09-07T00:35:24.667Z,22.10
2022-09-07T00:37:52.371Z,22.20
2022-09-07T00:40:20.115Z,22.30
2022-09-07T00:42:47.817Z,22.20
2022-09-07T00:45:17.913Z,22.20
2022-09-07T00:47:54.782Z,22.00
2022-09-07T00:50:27.387Z,22.10
2022-09-07T00:53:03.348Z,21.90
2022-09-07T00:55:33.137Z,21.80
2022-09-07T00:58:01.622Z,21.90
2022-09-07T01:00:29.992Z,22.00
2022-09-07T01:03:00.073Z,22.00
2022-09-07T01:05:38.388Z,22.10
2022-09-07T01:08:07.306Z,22.10
2022-09-07T01:10:36.821Z,22.10
2022-09-07T01:13:04.565Z,22.10
2022-09-07T01:15:52.799Z,21.90
2022-09-07T01:18:33.073Z,21.80
2022-09-07T01:21:26.213Z,21.90
2022-09-07T01:24:29.756Z,21.80
2022-09-07T01:27:27.371Z,21.70
2022-09-07T01:30:05.497Z,21.70
2022-09-07T01:32:48.193Z,21.80
2022-09-07T01:35:23.206Z,21.90
2022-09-07T01:38:01.067Z,21.90
2022-09-07T01:40:39.734Z,21.80
2022-09-07T01:43:15.913Z,21.80
2022-09-07T01:45:45.838Z,22.00
2022-09-07T01:48:17.439Z,22.00
2022-09-07T01:50:50.966Z,22.10
2022-09-07T01:53:23.979Z,22.10
2022-09-07T01:55:56.139Z,22.00
2022-09-07T01:58:30.691Z,22.10
2022-09-07T02:01:04.518Z,22.10
2022-09-07T02:03:36.462Z,22.10
2022-09-07T02:06:13.383Z,22.10
2022-09-07T02:08:45.750Z,22.00
2022-09-07T02:11:17.319Z,22.00
2022-09-07T02:13:51.610Z,21.90
2022-09-07T02:16:24.242Z,22.00
2022-09-07T02:18:56.801Z,21.90
2022-09-07T02:21:31.851Z,21.80
2022-09-07T02:24:05.085Z,21.80
2022-09-07T02:26:36.039Z,21.60
2022-09-07T02:29:05.477Z,21.70
2022-09-07T02:31:33.665Z,21.60
2022-09-07T02:34:02.108Z,21.60
2022-09-07T02:36:34.563Z,21.60
2022-09-07T02:39:02.380Z,21.60
2022-09-07T02:41:35.043Z,21.60
2022-09-07T02:44:07.127Z,21.70
2022-09-07T02:47:04.976Z,21.60
2022-09-07T02:49:51.290Z,21.50
2022-09-07T02:52:26.677Z,21.60
2022-09-07T02:55:03.878Z,21.50
2022-09-07T02:57:41.681Z,21.40
2022-09-07T03:00:14.217Z,21.30
2022-09-07T03:02:52.085Z,21.20
2022-09-07T03:05:24.261Z,21.20
2022-09-07T03:07:56.803Z,21.20
2022-09-07T03:10:25.326Z,21.20
2022-09-07T03:12:53.045Z,21.20
2022-09-07T03:15:24.850Z,21.10
2022-09-07T03:17:53.377Z,21.30
2022-09-07T03:20:22.062Z,21.30
2022-09-07T03:22:51.683Z,21.10
2022-09-07T03:25:20.346Z,21.20
2022-09-07T03:27:48.133Z,20.80
2022-09-07T03:30:15.987Z,20.60
2022-09-07T03:32:45.052Z,20.50
2022-09-07T03:35:14.465Z,20.70
2022-09-07T03:37:42.719Z,20.90
2022-09-07T03:40:12.915Z,20.60
2022-09-07T03:42:41.545Z,20.30
2022-09-07T03:45:11.069Z,20.50
2022-09-07T03:47:39.310Z,20.60
2022-09-07T03:50:09.033Z,20.50
2022-09-07T03:52:37.780Z,20.60
2022-09-07T03:55:06.476Z,20.70
2022-09-07T03:57:34.197Z,20.70
2022-09-07T04:00:01.966Z,20.70
2022-09-07T04:02:29.720Z,20.60
2022-09-07T04:04:57.469Z,20.50
2022-09-07T04:07:26.612Z,20.60
2022-09-07T04:09:54.347Z,20.80
2022-09-07T04:12:22.089Z,20.80
2022-09-07T04:14:49.808Z,21.00
2022-09-07T04:17:17.513Z,20.50
2022-09-07T04:19:45.247Z,19.80
2022-09-07T04:22:12.960Z,19.40
2022-09-07T04:24:42.065Z,19.30
2022-09-07T04:27:09.770Z,19.30
2022-09-07T04:29:37.626Z,19.30
2022-09-07T04:32:05.436Z,19.30
2022-09-07T04:34:33.176Z,19.50
2022-09-07T04:37:00.878Z,19.60
2022-09-07T04:39:28.704Z,19.80
2022-09-07T04:41:57.841Z,20.00
2022-09-07T04:44:25.596Z,20.20
2022-09-07T04:46:53.331Z,20.40
2022-09-07T04:49:21.342Z,20.40
2022-09-07T04:51:49.071Z,20.50
2022-09-07T04:54:16.813Z,20.60
2022-09-07T04:56:44.601Z,20.60
2022-09-07T04:59:13.662Z,20.70
2022-09-07T05:01:41.460Z,20.70
2022-09-07T05:04:09.424Z,20.90
2022-09-07T05:06:37.401Z,20.80
2022-09-07T05:09:05.158Z,20.90
2022-09-07T05:11:32.881Z,20.90
2022-09-07T05:14:02.507Z,20.90
2022-09-07T05:16:32.330Z,21.00
2022-09-07T05:19:02.318Z,20.90
2022-09-07T05:21:32.403Z,20.70
2022-09-07T05:24:01.102Z,20.80
2022-09-07T05:26:30.218Z,20.90
2022-09-07T05:31:51.456Z,21.00
2022-09-07T05:34:34.734Z,21.00
2022-09-07T05:37:03.215Z,20.90
2022-09-07T05:39:31.377Z,20.90
2022-09-07T05:41:59.208Z,20.70
2022-09-07T05:47:11.564Z,20.60
2022-09-07T05:49:39.402Z,20.80
2022-09-07T05:52:07.276Z,20.40
2022-09-07T05:54:35.048Z,20.10
2022-09-07T05:57:03.438Z,20.20
2022-09-07T05:59:31.224Z,20.30
2022-09-07T06:01:59.052Z,20.50
2022-09-07T06:04:28.316Z,20.70
2022-09-07T06:07:21.466Z,20.90
2022-09-07T06:12:31.485Z,21.10
2022-09-07T06:15:00.973Z,21.20
2022-09-07T06:17:29.235Z,21.30
2022-09-07T06:19:58.407Z,21.60
2022-09-07T06:22:30.227Z,21.70
2022-09-07T06:24:58.925Z,21.70
2022-09-07T06:27:26.710Z,21.60
2022-09-07T06:29:54.458Z,21.70
2022-09-07T06:35:12.166Z,21.90
2022-09-07T06:37:40.006Z,22.00
2022-09-07T06:40:10.618Z,22.00
2022-09-07T06:42:39.077Z,21.70
2022-09-07T06:45:07.673Z,21.80
2022-09-07T06:47:35.749Z,21.90
2022-09-07T06:50:03.520Z,21.80
2022-09-07T06:55:20.279Z,22.00
2022-09-07T06:57:48.405Z,22.10
2022-09-07T07:00:16.763Z,22.30
2022-09-07T07:02:44.497Z,22.40
2022-09-07T07:05:12.214Z,22.60
2022-09-07T07:07:41.256Z,22.60
2022-09-07T07:10:09.872Z,22.70
2022-09-07T07:15:04.562Z,22.70
2022-09-07T07:17:32.287Z,22.40
2022-09-07T07:20:00.052Z,22.50
2022-09-07T07:22:46.184Z,22.60
2022-09-07T07:25:16.435Z,22.70
2022-09-07T07:27:45.850Z,22.80
2022-09-07T07:30:14.595Z,23.00
2022-09-07T07:32:43.046Z,23.10
2022-09-07T07:35:11.123Z,23.10
2022-09-07T07:37:39.721Z,23.20
2022-09-07T07:40:19.138Z,23.30
2022-09-07T07:42:52.540Z,23.10
2022-09-07T07:48:07.940Z,23.20
2022-09-07T07:50:35.634Z,22.90
2022-09-07T07:55:51.564Z,22.20
2022-09-07T07:58:20.743Z,22.00
2022-09-07T08:00:56.458Z,22.10
2022-09-07T08:03:25.843Z,21.90
2022-09-07T08:05:54.050Z,21.70
2022-09-07T08:08:22.936Z,21.80
2022-09-07T08:10:50.719Z,21.90
2022-09-07T08:13:21.251Z,22.20
2022-09-07T08:15:49.091Z,22.30
2022-09-07T08:18:18.369Z,22.30
2022-09-07T08:20:46.105Z,22.30
2022-09-07T08:23:15.170Z,22.30
2022-09-07T08:25:51.319Z,22.30
2022-09-07T08:28:20.522Z,22.20
2022-09-07T08:30:48.925Z,22.30
2022-09-07T08:33:17.099Z,22.50
2022-09-07T08:35:54.964Z,22.60
2022-09-07T08:38:22.860Z,22.60
2022-09-07T08:40:50.858Z,22.70
2022-09-07T08:43:29.449Z,22.90
2022-09-07T08:46:03.930Z,22.90
2022-09-07T08:48:34.486Z,23.00
2022-09-07T08:51:09.611Z,23.30
2022-09-07T08:53:44.262Z,23.30
2022-09-07T08:56:18.503Z,23.40
2022-09-07T08:58:50.418Z,23.50
2022-09-07T09:01:35.675Z,23.70
2022-09-07T09:04:21.446Z,23.80
2022-09-07T09:07:09.771Z,24.00
2022-09-07T09:09:52.774Z,24.10
2022-09-07T09:12:27.490Z,24.30
2022-09-07T09:15:10.493Z,24.50
2022-09-07T09:17:45.484Z,24.70
2022-09-07T09:20:24.622Z,24.70
2022-09-07T09:22:56.687Z,24.90
2022-09-07T09:25:33.159Z,25.10
2022-09-07T09:28:01.394Z,25.70
2022-09-07T09:30:31.202Z,25.80
2022-09-07T09:33:15.938Z,26.10
2022-09-07T09:35:44.577Z,26.20
2022-09-07T09:38:33.304Z,26.50
2022-09-07T09:41:06.826Z,26.40
2022-09-07T09:43:44.560Z,26.70
2022-09-07T09:46:23.518Z,27.10
2022-09-07T09:48:55.547Z,27.10
2022-09-07T09:54:24.777Z,26.40
2022-09-07T09:56:52.741Z,26.40
2022-09-07T10:05:34.217Z,27.20
2022-09-07T10:08:02.619Z,27.80
2022-09-07T10:10:31.438Z,27.90
2022-09-07T10:12:59.509Z,28.00
2022-09-07T10:15:32.837Z,28.00
2022-09-07T10:18:05.905Z,28.20
2022-09-07T10:20:37.040Z,27.80
2022-09-07T10:23:06.123Z,27.60
2022-09-07T10:25:36.609Z,27.60
2022-09-07T10:28:18.048Z,27.90
2022-09-07T10:31:04.773Z,28.30
2022-09-07T10:34:25.773Z,28.80
2022-09-07T10:36:41.972Z,28.80
2022-09-07T10:39:15.518Z,28.90
2022-09-07T10:41:49.112Z,29.00
2022-09-07T10:44:36.594Z,29.30
2022-09-07T10:47:08.646Z,29.80
2022-09-07T10:52:43.187Z,30.20
2022-09-07T10:55:16.820Z,30.20
2022-09-07T10:57:56.001Z,29.80
2022-09-07T11:00:24.332Z,29.50
2022-09-07T11:06:07.686Z,28.80
2022-09-07T11:14:32.959Z,29.90
2022-09-07T11:17:03.865Z,29.50
2022-09-07T11:19:37.199Z,29.30
2022-09-07T11:22:16.905Z,29.30
2022-09-07T11:27:43.420Z,29.80
2022-09-07T11:30:22.153Z,29.80
2022-09-07T11:33:00.628Z,30.00
2022-09-07T11:35:40.682Z,30.30
2022-09-07T11:38:20.068Z,30.50
2022-09-07T11:40:58.175Z,30.60
2022-09-07T11:43:30.892Z,30.50
2022-09-07T11:46:04.839Z,30.10
2022-09-07T11:48:37.842Z,30.00
2022-09-07T11:51:10.451Z,29.90
2022-09-07T11:53:44.511Z,29.80
2022-09-07T11:56:17.648Z,29.70
2022-09-07T11:59:16.489Z,30.00
2022-09-07T12:01:55.832Z,29.60
2022-09-07T12:04:56.568Z,29.60
2022-09-07T12:07:49.474Z,29.90
2022-09-07T12:10:37.755Z,29.60
2022-09-07T12:13:26.283Z,29.20
2022-09-07T12:16:00.197Z,29.60
2022-09-07T12:18:44.760Z,29.80
2022-09-07T12:21:31.702Z,30.00
2022-09-07T12:23:59.497Z,30.40
2022-09-07T12:26:55.937Z,30.50
2022-09-07T12:29:26.003Z,30.00
2022-09-07T12:32:00.709Z,30.20
2022-09-07T12:34:50.233Z,30.70
2022-09-07T12:37:44.412Z,31.00
2022-09-07T12:40:58.964Z,30.60
2022-09-07T12:43:53.113Z,30.20
2022-09-07T12:46:36.904Z,30.10
2022-09-07T12:49:09.351Z,30.60
2022-09-07T12:54:35.699Z,31.20
2022-09-07T12:57:32.885Z,31.00
2022-09-07T13:00:16.072Z,31.10
2022-09-07T13:06:09.746Z,30.60
2022-09-07T13:09:11.597Z,30.50
2022-09-07T13:11:40.668Z,30.50
2022-09-07T13:14:20.059Z,30.30
2022-09-07T13:20:08.341Z,30.50
2022-09-07T13:22:55.406Z,31.10
2022-09-07T13:25:52.404Z,31.40
2022-09-07T13:28:26.403Z,31.20
2022-09-07T13:31:06.011Z,31.00
2022-09-07T13:33:50.311Z,31.00
2022-09-07T13:36:39.869Z,31.40
2022-09-07T13:39:13.042Z,31.30
2022-09-07T13:41:47.114Z,31.30
2022-09-07T13:44:25.933Z,31.20
2022-09-07T13:47:06.872Z,31.30
2022-09-07T13:49:56.137Z,30.90
2022-09-07T13:52:31.731Z,30.60
2022-09-07T13:55:09.202Z,30.50
2022-09-07T13:57:47.819Z,30.50
2022-09-07T14:00:16.612Z,30.40
2022-09-07T14:02:44.669Z,30.30
2022-09-07T14:05:20.334Z,30.10
2022-09-07T14:07:48.975Z,30.10
2022-09-07T14:10:19.833Z,30.10
2022-09-07T14:12:49.813Z,30.00
2022-09-07T14:15:30.022Z,29.80
2022-09-07T14:18:05.258Z,29.90
2022-09-07T14:20:39.326Z,30.00
2022-09-07T14:23:13.178Z,29.80
2022-09-07T14:28:31.847Z,29.50
2022-09-07T14:31:00.244Z,29.70
2022-09-07T14:33:29.582Z,29.60
2022-09-07T14:36:00.008Z,29.70
2022-09-07T14:41:19.740Z,29.80
2022-09-07T14:43:53.702Z,29.90
2022-09-07T14:46:25.391Z,29.90
2022-09-07T14:48:55.283Z,29.90
2022-09-07T14:51:35.294Z,29.80
2022-09-07T14:54:06.971Z,29.70
2022-09-07T14:56:36.524Z,29.70
2022-09-07T14:59:29.086Z,29.80
2022-09-07T15:02:23.961Z,30.20
2022-09-07T15:05:20.275Z,30.50
2022-09-07T15:07:49.421Z,30.40
2022-09-07T15:10:27.975Z,30.40
2022-09-07T15:12:57.456Z,30.50
2022-09-07T15:15:29.784Z,30.70
2022-09-07T15:18:05.878Z,30.90
2022-09-07T15:20:38.362Z,31.10
2022-09-07T15:23:07.337Z,30.80
2022-09-07T15:25:36.259Z,30.70
2022-09-07T15:28:05.033Z,30.60
2022-09-07T15:30:34.369Z,30.60
2022-09-07T15:33:02.139Z,30.80
2022-09-07T15:35:29.883Z,30.90
2022-09-07T15:38:01.784Z,30.80
2022-09-07T15:40:37.324Z,30.60
2022-09-07T15:43:16.479Z,30.50
2022-09-07T15:45:51.049Z,30.50
2022-09-07T15:48:22.171Z,30.40
2022-09-07T15:50:50.437Z,30.40
2022-09-07T15:56:06.675Z,30.20
2022-09-07T15:58:34.390Z,30.20
2022-09-07T16:03:53.831Z,30.00
2022-09-07T16:06:22.261Z,29.80
2022-09-07T16:08:51.752Z,29.70
2022-09-07T16:11:23.815Z,29.50
2022-09-07T16:13:57.368Z,29.30
2022-09-07T16:17:26.519Z,29.30
2022-09-07T16:19:15.412Z,29.20
2022-09-07T16:21:44.065Z,29.20
2022-09-07T16:24:11.759Z,29.20
2022-09-07T16:26:39.458Z,29.20
2022-09-07T16:29:07.291Z,29.20
2022-09-07T16:31:37.607Z,29.00
2022-09-07T16:34:05.525Z,28.90
2022-09-07T16:36:33.218Z,28.80
2022-09-07T16:39:01.554Z,28.60
2022-09-07T16:41:31.271Z,28.50
2022-09-07T16:43:59.449Z,28.70
2022-09-07T16:46:30.523Z,28.60
2022-09-07T16:48:59.783Z,28.40
2022-09-07T16:51:28.734Z,28.40
2022-09-07T16:53:58.768Z,28.50
2022-09-07T16:56:28.766Z,28.50
2022-09-07T16:58:58.114Z,28.40
2022-09-07T17:01:27.988Z,28.40
2022-09-07T17:03:56.988Z,28.40
2022-09-07T17:06:28.156Z,28.20
2022-09-07T17:08:56.347Z,28.00
2022-09-07T17:11:25.396Z,28.00
2022-09-07T17:13:54.094Z,28.10
2022-09-07T17:16:24.041Z,28.20
2022-09-07T17:21:41.826Z,28.30
2022-09-07T17:24:11.270Z,28.20
2022-09-07T17:26:42.276Z,28.00
2022-09-07T17:29:10.482Z,27.90
2022-09-07T17:34:26.927Z,28.00
2022-09-07T17:36:56.022Z,27.80
2022-09-07T17:39:23.823Z,27.90
2022-09-07T17:41:53.253Z,27.80
2022-09-07T17:44:21.617Z,27.70
2022-09-07T17:46:49.437Z,27.80
2022-09-07T17:49:17.641Z,27.60
2022-09-07T17:51:46.302Z,27.40
2022-09-07T17:54:17.480Z,27.40
2022-09-07T17:56:46.141Z,27.30
2022-09-07T18:02:01.866Z,27.20
2022-09-07T18:04:30.153Z,27.10
2022-09-07T18:07:01.835Z,27.00
2022-09-07T18:09:30.869Z,26.90
2022-09-07T18:11:58.588Z,26.90
2022-09-07T18:14:26.917Z,26.80
2022-09-07T18:16:55.752Z,26.80
2022-09-07T18:19:24.201Z,26.60
2022-09-07T18:21:54.029Z,26.60
2022-09-07T18:24:24.578Z,26.50
2022-09-07T18:26:54.835Z,26.20
2022-09-07T18:29:30.095Z,25.50
2022-09-07T18:32:00.611Z,25.20
2022-09-07T18:34:30.630Z,25.20
2022-09-07T18:36:59.106Z,25.20
2022-09-07T18:39:27.327Z,25.20
2022-09-07T18:41:56.585Z,25.30
2022-09-07T18:47:21.411Z,25.30
2022-09-07T18:49:49.761Z,25.20
2022-09-07T18:55:07.114Z,24.70
2022-09-07T18:57:36.642Z,24.80
2022-09-07T19:00:05.787Z,24.80
2022-09-07T19:02:34.327Z,24.90
2022-09-07T19:07:51.095Z,25.00
2022-09-07T19:10:18.975Z,25.00
2022-09-07T19:12:48.058Z,25.10
2022-09-07T19:15:16.111Z,25.10
2022-09-07T19:17:43.923Z,25.20
2022-09-07T19:20:11.813Z,25.10
2022-09-07T19:22:39.614Z,24.90
2022-09-07T19:25:07.688Z,24.90
2022-09-07T19:27:35.546Z,24.90
2022-09-07T19:30:05.319Z,25.00
2022-09-07T19:32:33.025Z,25.10
2022-09-07T19:35:00.707Z,24.90
2022-09-07T19:37:29.846Z,24.80
2022-09-07T19:39:57.583Z,25.00
2022-09-07T19:42:26.427Z,24.90
2022-09-07T19:44:57.102Z,25.00
2022-09-07T19:47:26.700Z,25.20
2022-09-07T19:49:57.162Z,25.20
2022-09-07T19:52:25.293Z,25.20
2022-09-07T19:54:53.738Z,25.30
2022-09-07T19:57:21.609Z,25.40
2022-09-07T19:59:49.677Z,25.30
2022-09-07T20:02:17.588Z,25.30
2022-09-07T20:04:47.513Z,25.50
2022-09-07T20:07:21.393Z,25.50
2022-09-07T20:09:50.968Z,25.60
2022-09-07T20:12:21.202Z,25.50
2022-09-07T20:14:49.013Z,25.50
2022-09-07T20:17:16.798Z,25.40
2022-09-07T20:19:45.875Z,25.10
2022-09-07T20:22:14.149Z,25.10
2022-09-07T20:24:44.720Z,25.10
2022-09-07T20:27:12.508Z,25.00
2022-09-07T20:29:46.666Z,25.10
2022-09-07T20:32:14.440Z,25.20
2022-09-07T20:34:43.252Z,25.20
2022-09-07T20:37:12.448Z,25.00
2022-09-07T20:39:40.411Z,24.90
2022-09-07T20:42:08.793Z,24.60
2022-09-07T20:44:36.790Z,24.60
2022-09-07T20:47:04.643Z,24.60
2022-09-07T20:49:32.367Z,24.70
2022-09-07T20:52:00.702Z,24.60
2022-09-07T20:54:29.753Z,24.60
2022-09-07T20:57:00.101Z,24.60
2022-09-07T20:59:31.046Z,24.60
2022-09-07T21:01:58.851Z,24.50
2022-09-07T21:04:27.393Z,24.40
2022-09-07T21:06:55.104Z,24.50
2022-09-07T21:09:24.243Z,24.40
2022-09-07T21:11:56.875Z,24.50
2022-09-07T21:14:25.179Z,24.30
2022-09-07T21:16:52.885Z,24.40
2022-09-07T21:19:20.834Z,24.20
2022-09-07T21:21:48.567Z,24.00
2022-09-07T21:24:18.689Z,23.80
2022-09-07T21:26:47.318Z,23.80
2022-09-07T21:29:18.411Z,23.90
2022-09-07T21:31:46.539Z,23.70
2022-09-07T21:34:14.798Z,23.70
2022-09-07T21:36:42.675Z,23.50
2022-09-07T21:39:14.181Z,23.50
2022-09-07T21:41:42.374Z,23.60
2022-09-07T21:44:12.599Z,23.50
2022-09-07T21:46:42.684Z,23.60
2022-09-07T21:49:10.835Z,23.60
2022-09-07T21:51:38.712Z,23.60
2022-09-07T21:54:06.506Z,23.60
2022-09-07T21:56:34.304Z,23.60
2022-09-07T21:59:02.782Z,23.50
2022-09-07T22:01:31.687Z,23.50
2022-09-07T22:04:03.019Z,23.60
2022-09-07T22:06:32.446Z,23.60
2022-09-07T22:09:00.726Z,23.60
2022-09-07T22:11:30.008Z,23.70
2022-09-07T22:14:00.210Z,23.80
2022-09-07T22:16:28.376Z,23.70
2022-09-07T22:18:56.447Z,23.60
2022-09-07T22:21:27.152Z,23.60
2022-09-07T22:23:57.270Z,23.70
2022-09-07T22:26:27.314Z,23.70
2022-09-07T22:28:55.604Z,23.80
2022-09-07T22:31:25.607Z,23.90
2022-09-07T22:33:55.104Z,23.70
2022-09-07T22:36:25.957Z,23.70
2022-09-07T22:38:55.808Z,23.80
2022-09-07T22:41:25.739Z,23.70
2022-09-07T22:43:53.578Z,23.80
2022-09-07T22:46:23.562Z,23.80
2022-09-07T22:48:51.886Z,23.70
2022-09-07T22:51:19.576Z,23.60
2022-09-07T22:53:48.781Z,23.60
2022-09-07T22:56:19.451Z,23.40
2022-09-07T22:58:48.199Z,23.40
2022-09-07T23:01:16.573Z,23.40
2022-09-07T23:03:45.464Z,23.30
2022-09-07T23:06:21.417Z,23.10
2022-09-07T23:08:50.921Z,23.00
2022-09-07T23:11:18.844Z,23.00
2022-09-07T23:13:47.169Z,23.00
2022-09-07T23:16:14.889Z,22.70
2022-09-07T23:18:42.852Z,22.80
2022-09-07T23:21:11.821Z,22.80
2022-09-07T23:23:39.646Z,22.80
2022-09-07T23:26:08.787Z,22.70
2022-09-07T23:28:36.794Z,22.70
2022-09-07T23:31:04.743Z,22.60
2022-09-07T23:33:32.750Z,22.60
2022-09-07T23:36:03.127Z,22.40
2022-09-07T23:38:31.314Z,22.40
2022-09-07T23:41:00.536Z,22.40
2022-09-07T23:43:31.284Z,22.40
2022-09-07T23:46:00.186Z,22.10
2022-09-07T23:48:28.520Z,22.10
2022-09-07T23:50:56.216Z,22.00
2022-09-07T23:53:24.167Z,21.90
2022-09-07T23:55:53.148Z,22.00
2022-09-07T23:58:21.883Z,22.10
